Time;durP1;ratioP1;P1;durP2;ratioP2;P2;SDS_P1;SDS_P2;PMS_P1;PMS_P2;Temp;Humidity;BMP_temperature;BMP_pressure;BME280_temperature;BME280_humidity;BME280_pressure;Samples;Min_cycle;Max_cycle;Signal;HPM_P1;HPM_P2
2022/03/29 00:00:06;;;;;;;61.47;18.90;;;;;;;;;;5038406;28;20033;-72
2022/03/29 00:02:31;;;;;;;66.20;18.63;;;;;;;;;;5040548;28;20258;-72
2022/03/29 00:05:02;;;;;;;70.13;20.40;;;;;;;;;;5042058;28;20041;-72
2022/03/29 00:07:27;;;;;;;68.53;19.88;;;;;;;;;;5036434;28;20025;-72
2022/03/29 00:09:52;;;;;;;65.50;17.67;;;;;;;;;;5041234;28;20066;-72
2022/03/29 00:12:17;;;;;;;56.53;17.15;;;;;;;;;;5042343;28;20112;-72
2022/03/29 00:14:43;;;;;;;67.85;20.08;;;;;;;;;;5033023;28;20262;-72
2022/03/29 00:17:08;;;;;;;61.27;18.70;;;;;;;;;;5040090;28;20774;-72
2022/03/29 00:19:33;;;;;;;76.30;20.67;;;;;;;;;;5040602;28;20269;-72
2022/03/29 00:21:58;;;;;;;59.67;19.58;;;;;;;;;;5040103;28;20522;-72
2022/03/29 00:24:23;;;;;;;78.13;22.90;;;;;;;;;;5035450;28;20275;-72
2022/03/29 00:26:48;;;;;;;81.77;24.67;;;;;;;;;;5039510;28;20270;-72
2022/03/29 00:29:14;;;;;;;76.43;22.53;;;;;;;;;;5038047;28;20261;-72
2022/03/29 00:31:39;;;;;;;80.20;22.25;;;;;;;;;;5042614;28;20286;-72
2022/03/29 00:34:04;;;;;;;92.22;25.55;;;;;;;;;;5038414;28;20261;-72
2022/03/29 00:36:29;;;;;;;81.93;23.97;;;;;;;;;;5038675;28;20021;-72
2022/03/29 00:38:54;;;;;;;93.53;26.10;;;;;;;;;;5042829;28;20254;-72
2022/03/29 00:41:20;;;;;;;87.07;24.00;;;;;;;;;;5041875;28;20651;-72
2022/03/29 00:43:45;;;;;;;90.15;25.63;;;;;;;;;;5038028;28;20033;-72
2022/03/29 00:46:11;;;;;;;108.43;30.25;;;;;;;;;;5046671;28;20119;-72
2022/03/29 00:48:36;;;;;;;95.97;26.20;;;;;;;;;;5045978;28;20025;-72
2022/03/29 00:51:01;;;;;;;115.20;30.20;;;;;;;;;;5047051;28;20016;-72
2022/03/29 00:53:26;;;;;;;110.03;30.05;;;;;;;;;;5040662;28;20025;-72
2022/03/29 00:55:54;;;;;;;119.43;31.77;;;;;;;;;;5042965;28;20021;-72
2022/03/29 00:58:19;;;;;;;123.60;30.90;;;;;;;;;;5042833;28;20021;-72
2022/03/29 01:00:47;;;;;;;130.05;32.22;;;;;;;;;;5038097;28;20067;-72
2022/03/29 01:03:12;;;;;;;126.85;33.88;;;;;;;;;;5036079;28;20099;-72
2022/03/29 01:05:37;;;;;;;139.60;37.25;;;;;;;;;;5044388;28;20029;-72
2022/03/29 01:08:04;;;;;;;147.40;36.60;;;;;;;;;;5042298;28;20103;-72
2022/03/29 01:10:29;;;;;;;158.18;38.25;;;;;;;;;;5042044;28;20033;-72
2022/03/29 01:12:55;;;;;;;146.50;37.03;;;;;;;;;;5040159;28;20029;-72
2022/03/29 01:15:22;;;;;;;150.63;37.92;;;;;;;;;;5044554;28;20848;-72
2022/03/29 01:17:48;;;;;;;145.85;36.45;;;;;;;;;;5038878;28;20036;-72
2022/03/29 01:20:17;;;;;;;153.35;38.40;;;;;;;;;;5039391;28;20017;-72
2022/03/29 01:22:44;;;;;;;162.02;39.75;;;;;;;;;;5041809;28;20136;-72
2022/03/29 01:25:12;;;;;;;153.77;40.05;;;;;;;;;;5045343;28;20021;-72
2022/03/29 01:27:38;;;;;;;150.80;38.95;;;;;;;;;;5046137;28;20423;-72
2022/03/29 01:30:03;;;;;;;146.57;39.13;;;;;;;;;;5042355;28;20021;-72
2022/03/29 01:32:29;;;;;;;149.45;39.47;;;;;;;;;;5040263;28;20083;-72
2022/03/29 01:34:55;;;;;;;147.07;36.13;;;;;;;;;;5044543;28;20025;-72
2022/03/29 01:37:20;;;;;;;151.00;39.92;;;;;;;;;;5044661;28;20032;-72
2022/03/29 01:39:45;;;;;;;149.75;38.22;;;;;;;;;;5062040;28;20052;-72
2022/03/29 01:42:11;;;;;;;154.50;38.57;;;;;;;;;;5041577;28;20637;-72
2022/03/29 01:44:37;;;;;;;146.25;38.58;;;;;;;;;;5042222;28;20270;-72
2022/03/29 01:47:02;;;;;;;162.07;37.97;;;;;;;;;;5035769;28;20059;-72
2022/03/29 01:49:27;;;;;;;149.82;38.05;;;;;;;;;;5042784;28;20020;-72
2022/03/29 01:51:53;;;;;;;163.15;38.30;;;;;;;;;;5043887;28;20052;-72
2022/03/29 01:54:18;;;;;;;169.55;41.17;;;;;;;;;;5039985;28;20104;-72
2022/03/29 01:56:43;;;;;;;156.75;39.30;;;;;;;;;;5035554;28;20032;-72
2022/03/29 01:59:11;;;;;;;163.23;39.55;;;;;;;;;;5043764;28;20256;-72
2022/03/29 02:01:43;;;;;;;156.60;41.00;;;;;;;;;;5040621;28;20148;-72
2022/03/29 02:04:09;;;;;;;181.68;40.63;;;;;;;;;;5042233;28;20029;-72
2022/03/29 02:06:34;;;;;;;173.82;40.33;;;;;;;;;;5036526;28;20029;-72
2022/03/29 02:09:00;;;;;;;172.65;40.42;;;;;;;;;;5044042;28;20031;-72
2022/03/29 02:11:26;;;;;;;163.07;41.05;;;;;;;;;;5042271;28;20021;-72
2022/03/29 02:13:51;;;;;;;167.02;42.35;;;;;;;;;;5048215;28;20025;-72
2022/03/29 02:16:16;;;;;;;176.25;41.58;;;;;;;;;;5039017;28;20790;-72
2022/03/29 02:18:41;;;;;;;175.77;42.58;;;;;;;;;;5044611;28;20033;-72
2022/03/29 02:21:06;;;;;;;167.87;42.20;;;;;;;;;;5047725;28;20479;-72
2022/03/29 02:23:32;;;;;;;182.77;40.92;;;;;;;;;;5043724;28;20262;-72
2022/03/29 02:25:57;;;;;;;167.60;39.90;;;;;;;;;;5044676;28;20324;-72
2022/03/29 02:28:22;;;;;;;184.60;43.63;;;;;;;;;;5042893;28;20279;-72
2022/03/29 02:30:48;;;;;;;164.77;39.33;;;;;;;;;;5044753;28;20019;-72
2022/03/29 02:33:13;;;;;;;165.60;41.58;;;;;;;;;;5040611;28;20379;-72
2022/03/29 02:35:38;;;;;;;173.82;41.95;;;;;;;;;;5043444;28;20067;-72
2022/03/29 02:38:04;;;;;;;166.10;39.17;;;;;;;;;;5035310;28;20021;-72
2022/03/29 02:40:30;;;;;;;168.48;39.63;;;;;;;;;;5038301;28;20266;-72
2022/03/29 02:42:55;;;;;;;171.57;41.25;;;;;;;;;;5039850;28;20398;-72
2022/03/29 02:45:21;;;;;;;174.13;39.83;;;;;;;;;;5042822;28;20431;-72
2022/03/29 02:47:48;;;;;;;172.73;44.13;;;;;;;;;;5044203;28;20037;-72
2022/03/29 02:50:13;;;;;;;190.23;42.38;;;;;;;;;;5044637;28;20063;-72
2022/03/29 02:52:42;;;;;;;200.43;44.53;;;;;;;;;;5034532;28;20379;-72
2022/03/29 02:55:08;;;;;;;190.88;44.10;;;;;;;;;;5047805;28;20017;-72
2022/03/29 02:57:33;;;;;;;196.45;45.28;;;;;;;;;;5035841;28;20033;-72
2022/03/29 02:59:58;;;;;;;202.40;46.00;;;;;;;;;;5044347;28;20024;-72
2022/03/29 03:02:23;;;;;;;229.02;48.38;;;;;;;;;;5037753;28;20313;-72
2022/03/29 03:04:48;;;;;;;214.65;46.08;;;;;;;;;;5053487;28;20262;-72
2022/03/29 03:07:13;;;;;;;199.73;44.47;;;;;;;;;;5038014;28;20278;-72
2022/03/29 03:09:39;;;;;;;209.77;45.40;;;;;;;;;;5040787;28;20751;-72
2022/03/29 03:12:04;;;;;;;212.13;46.30;;;;;;;;;;5038253;28;20025;-72
2022/03/29 03:14:29;;;;;;;215.48;47.60;;;;;;;;;;5041562;28;20025;-72
2022/03/29 03:16:54;;;;;;;212.15;48.53;;;;;;;;;;5052878;28;20530;-72
2022/03/29 03:19:19;;;;;;;221.27;45.45;;;;;;;;;;5044014;28;20317;-72
2022/03/29 03:21:45;;;;;;;227.75;45.83;;;;;;;;;;5040319;28;20296;-72
2022/03/29 03:24:10;;;;;;;218.65;47.55;;;;;;;;;;5036284;28;20048;-72
2022/03/29 03:26:35;;;;;;;237.20;49.70;;;;;;;;;;5046347;28;20028;-72
2022/03/29 03:29:00;;;;;;;233.02;50.28;;;;;;;;;;5041544;28;20032;-72
2022/03/29 03:31:25;;;;;;;221.93;47.83;;;;;;;;;;5035069;28;20033;-72
2022/03/29 03:33:51;;;;;;;224.30;45.55;;;;;;;;;;5034432;28;20263;-72
2022/03/29 03:36:16;;;;;;;208.70;45.13;;;;;;;;;;5036579;28;20412;-72
2022/03/29 03:38:41;;;;;;;224.10;47.85;;;;;;;;;;5045459;28;20377;-72
2022/03/29 03:41:06;;;;;;;249.10;48.63;;;;;;;;;;5041269;28;20183;-72
2022/03/29 03:43:31;;;;;;;224.88;48.25;;;;;;;;;;5040246;28;20361;-72
2022/03/29 03:45:57;;;;;;;227.15;49.90;;;;;;;;;;5039248;28;20498;-72
2022/03/29 03:48:22;;;;;;;226.13;48.20;;;;;;;;;;5040402;28;20389;-72
2022/03/29 03:50:47;;;;;;;219.48;47.35;;;;;;;;;;5035653;28;20738;-72
2022/03/29 03:53:12;;;;;;;211.40;43.38;;;;;;;;;;5044781;28;20057;-72
2022/03/29 03:55:37;;;;;;;218.37;46.20;;;;;;;;;;5042522;28;20826;-72
2022/03/29 03:58:02;;;;;;;236.18;48.70;;;;;;;;;;5040581;28;20285;-72
2022/03/29 04:00:27;;;;;;;225.17;47.17;;;;;;;;;;5038644;28;20024;-72
2022/03/29 04:02:54;;;;;;;229.03;46.03;;;;;;;;;;5032985;28;20276;-72
2022/03/29 04:05:21;;;;;;;236.98;50.40;;;;;;;;;;5037899;28;20280;-72
2022/03/29 04:07:46;;;;;;;219.10;45.75;;;;;;;;;;5031692;28;20021;-72
2022/03/29 04:10:11;;;;;;;217.27;45.90;;;;;;;;;;5037932;28;20030;-72
2022/03/29 04:12:37;;;;;;;222.85;49.55;;;;;;;;;;5043486;28;20266;-72
2022/03/29 04:15:03;;;;;;;220.40;45.38;;;;;;;;;;5040014;28;20025;-72
2022/03/29 04:17:28;;;;;;;236.27;47.67;;;;;;;;;;5041484;28;20032;-72
2022/03/29 04:19:54;;;;;;;217.43;48.22;;;;;;;;;;5048019;28;20036;-72
2022/03/29 04:22:20;;;;;;;221.77;47.40;;;;;;;;;;5043517;28;20684;-72
2022/03/29 04:24:45;;;;;;;223.70;49.00;;;;;;;;;;5042675;28;20130;-72
2022/03/29 04:27:10;;;;;;;220.55;47.38;;;;;;;;;;5038215;28;20282;-72
2022/03/29 04:29:36;;;;;;;234.02;46.97;;;;;;;;;;5045943;28;20096;-72
2022/03/29 04:32:01;;;;;;;232.23;48.13;;;;;;;;;;5036342;28;20026;-72
2022/03/29 04:34:26;;;;;;;230.38;46.72;;;;;;;;;;5042501;28;20021;-72
2022/03/29 04:36:51;;;;;;;201.73;44.25;;;;;;;;;;5039906;28;20036;-72
2022/03/29 04:39:16;;;;;;;224.32;45.33;;;;;;;;;;5039173;28;20349;-72
2022/03/29 04:41:42;;;;;;;204.73;43.63;;;;;;;;;;5041194;28;20446;-72
2022/03/29 04:44:07;;;;;;;213.57;42.47;;;;;;;;;;5035758;28;22536;-72
2022/03/29 04:46:32;;;;;;;240.60;45.97;;;;;;;;;;5040353;28;20040;-72
2022/03/29 04:48:57;;;;;;;215.13;47.35;;;;;;;;;;5044391;28;20327;-72
2022/03/29 04:51:23;;;;;;;187.48;42.03;;;;;;;;;;5036690;28;20158;-72
2022/03/29 04:53:48;;;;;;;232.40;47.35;;;;;;;;;;5033011;28;20270;-71
2022/03/29 04:56:14;;;;;;;225.60;48.67;;;;;;;;;;5041792;28;20116;-76
2022/03/29 04:58:39;;;;;;;212.40;41.38;;;;;;;;;;5042628;28;20035;-73
2022/03/29 05:01:04;;;;;;;216.02;45.53;;;;;;;;;;5039790;28;20021;-74
2022/03/29 05:03:31;;;;;;;230.77;46.07;;;;;;;;;;5043830;28;20029;-73
2022/03/29 05:05:56;;;;;;;215.93;45.22;;;;;;;;;;5056025;28;20280;-72
2022/03/29 05:08:22;;;;;;;205.43;42.28;;;;;;;;;;5042964;28;20033;-72
2022/03/29 05:10:47;;;;;;;245.55;49.38;;;;;;;;;;5038975;28;20024;-72
2022/03/29 05:13:14;;;;;;;205.43;47.47;;;;;;;;;;5040198;28;20025;-72
2022/03/29 05:15:39;;;;;;;202.05;42.90;;;;;;;;;;5044772;28;20528;-72
2022/03/29 05:18:04;;;;;;;214.98;47.78;;;;;;;;;;5037946;28;20021;-72
2022/03/29 05:20:30;;;;;;;207.45;42.42;;;;;;;;;;5040727;28;20047;-72
2022/03/29 05:22:55;;;;;;;206.27;41.85;;;;;;;;;;5044741;28;20027;-72
2022/03/29 05:25:21;;;;;;;203.75;42.97;;;;;;;;;;5045624;28;20538;-72
2022/03/29 05:27:47;;;;;;;197.88;42.70;;;;;;;;;;5040763;28;20096;-72
2022/03/29 05:30:13;;;;;;;202.52;41.45;;;;;;;;;;5039653;28;20108;-71
2022/03/29 05:32:38;;;;;;;200.27;40.30;;;;;;;;;;5039401;28;20796;-76
2022/03/29 05:35:04;;;;;;;201.35;43.22;;;;;;;;;;5044824;28;20482;-72
2022/03/29 05:37:29;;;;;;;222.23;44.95;;;;;;;;;;5049036;28;20058;-70
2022/03/29 05:39:54;;;;;;;188.90;40.75;;;;;;;;;;5044702;28;20399;-71
2022/03/29 05:42:21;;;;;;;194.15;43.50;;;;;;;;;;5039467;28;20029;-73
2022/03/29 05:44:46;;;;;;;207.75;40.47;;;;;;;;;;5040468;28;20307;-69
2022/03/29 05:49:57;;;;;;;192.57;39.10;;;;;;;;;;5050626;28;20674;-74
2022/03/29 05:52:22;;;;;;;211.07;41.00;;;;;;;;;;5044596;28;20101;-71
2022/03/29 05:54:47;;;;;;;192.82;42.17;;;;;;;;;;5038622;28;20448;-71
2022/03/29 05:57:13;;;;;;;233.00;43.75;;;;;;;;;;5044837;28;20309;-70
2022/03/29 05:59:39;;;;;;;216.73;45.00;;;;;;;;;;5043748;28;20037;-71
2022/03/29 06:02:04;;;;;;;201.80;41.92;;;;;;;;;;5049019;28;20032;-71
2022/03/29 06:04:30;;;;;;;204.45;42.28;;;;;;;;;;5036949;28;20036;-71
2022/03/29 06:06:55;;;;;;;202.45;41.70;;;;;;;;;;5038362;28;20029;-72
2022/03/29 06:09:21;;;;;;;215.85;45.33;;;;;;;;;;5037052;28;20028;-71
2022/03/29 06:11:46;;;;;;;210.68;42.35;;;;;;;;;;5035723;28;20029;-71
2022/03/29 06:14:11;;;;;;;203.27;42.67;;;;;;;;;;5039114;28;20115;-72
2022/03/29 06:16:36;;;;;;;203.95;41.50;;;;;;;;;;5041623;28;20273;-71
2022/03/29 06:19:01;;;;;;;209.65;40.83;;;;;;;;;;5039126;28;20104;-71
2022/03/29 06:21:26;;;;;;;195.13;41.77;;;;;;;;;;5042268;28;20057;-71
2022/03/29 06:23:52;;;;;;;190.00;43.17;;;;;;;;;;5044636;28;20744;-70
2022/03/29 06:26:18;;;;;;;196.23;39.70;;;;;;;;;;5041644;28;20037;-71
2022/03/29 06:28:43;;;;;;;189.00;39.20;;;;;;;;;;5044267;28;20266;-74
2022/03/29 06:31:09;;;;;;;192.23;38.70;;;;;;;;;;5037792;28;20130;-71
2022/03/29 06:33:35;;;;;;;177.68;40.72;;;;;;;;;;5047565;28;20021;-71
2022/03/29 06:36:00;;;;;;;208.50;41.72;;;;;;;;;;5042420;28;20029;-73
2022/03/29 06:38:25;;;;;;;202.45;40.88;;;;;;;;;;5047930;28;20025;-69
2022/03/29 06:40:52;;;;;;;208.60;43.55;;;;;;;;;;5039151;28;20258;-70
2022/03/29 06:43:18;;;;;;;174.82;38.25;;;;;;;;;;5042581;28;20019;-71
2022/03/29 06:45:43;;;;;;;174.85;40.70;;;;;;;;;;5040912;28;22324;-71
2022/03/29 06:48:09;;;;;;;185.70;39.42;;;;;;;;;;5043759;28;20082;-71
2022/03/29 06:50:35;;;;;;;184.40;38.95;;;;;;;;;;5041165;28;20023;-70
2022/03/29 06:53:00;;;;;;;182.07;37.60;;;;;;;;;;5039423;28;20395;-71
2022/03/29 06:55:26;;;;;;;174.35;39.17;;;;;;;;;;5039028;28;20523;-71
2022/03/29 06:57:52;;;;;;;198.63;43.33;;;;;;;;;;5034150;28;20040;-70
2022/03/29 07:00:17;;;;;;;176.00;41.92;;;;;;;;;;5040819;28;20025;-70
2022/03/29 07:02:43;;;;;;;185.85;38.85;;;;;;;;;;5039318;28;20044;-70
2022/03/29 07:05:08;;;;;;;187.48;40.35;;;;;;;;;;5034316;28;20037;-70
2022/03/29 07:07:33;;;;;;;174.20;37.25;;;;;;;;;;5040503;28;20092;-70
2022/03/29 07:12:51;;;;;;;189.23;38.60;;;;;;;;;;5028840;28;20361;-68
2022/03/29 07:15:16;;;;;;;179.93;35.42;;;;;;;;;;5039824;28;20215;-68
2022/03/29 07:17:42;;;;;;;165.35;37.13;;;;;;;;;;5036459;28;20029;-68
2022/03/29 07:20:07;;;;;;;182.15;39.90;;;;;;;;;;5040172;28;20081;-68
2022/03/29 07:22:34;;;;;;;174.13;37.22;;;;;;;;;;5041643;28;20029;-68
2022/03/29 07:24:59;;;;;;;178.90;40.40;;;;;;;;;;5037181;28;20486;-68
2022/03/29 07:27:24;;;;;;;187.57;38.22;;;;;;;;;;5038520;28;20021;-68
2022/03/29 07:29:49;;;;;;;180.82;37.05;;;;;;;;;;5039111;28;20647;-68
2022/03/29 07:32:15;;;;;;;173.77;37.60;;;;;;;;;;5033442;28;20262;-68
2022/03/29 07:34:40;;;;;;;165.60;35.05;;;;;;;;;;5041863;28;20689;-68
2022/03/29 07:37:06;;;;;;;185.73;38.85;;;;;;;;;;5037911;28;20037;-68
2022/03/29 07:39:31;;;;;;;161.95;38.10;;;;;;;;;;5038350;28;20332;-68
2022/03/29 07:41:56;;;;;;;171.60;39.42;;;;;;;;;;5040524;28;20048;-68
2022/03/29 07:44:21;;;;;;;139.70;32.33;;;;;;;;;;5037498;28;20151;-68
2022/03/29 07:46:47;;;;;;;155.55;37.05;;;;;;;;;;5039181;28;20433;-68
2022/03/29 07:49:12;;;;;;;170.35;38.90;;;;;;;;;;5039274;28;20407;-68
2022/03/29 07:51:38;;;;;;;137.70;32.78;;;;;;;;;;5039584;28;20033;-68
2022/03/29 07:54:03;;;;;;;155.38;37.15;;;;;;;;;;5031885;28;20047;-69
2022/03/29 07:56:28;;;;;;;180.38;37.35;;;;;;;;;;5034082;28;20033;-68
2022/03/29 07:58:56;;;;;;;152.23;36.95;;;;;;;;;;5031012;28;20080;-68
2022/03/29 08:01:21;;;;;;;160.77;36.92;;;;;;;;;;5030744;28;20754;-68
2022/03/29 08:03:46;;;;;;;151.25;37.05;;;;;;;;;;5043065;28;20032;-68
2022/03/29 08:06:12;;;;;;;153.35;34.20;;;;;;;;;;5034708;28;20037;-68
2022/03/29 08:08:37;;;;;;;173.95;35.72;;;;;;;;;;5040822;28;20032;-68
2022/03/29 08:11:03;;;;;;;158.85;35.42;;;;;;;;;;5030409;28;20032;-68
2022/03/29 08:13:29;;;;;;;146.10;34.15;;;;;;;;;;5040937;28;20009;-68
2022/03/29 08:15:56;;;;;;;156.23;35.13;;;;;;;;;;5033042;28;20052;-68
2022/03/29 08:18:21;;;;;;;152.02;32.60;;;;;;;;;;5032063;28;20044;-68
2022/03/29 08:20:47;;;;;;;145.30;32.83;;;;;;;;;;5039705;28;20633;-68
2022/03/29 08:23:12;;;;;;;150.98;35.13;;;;;;;;;;5037496;28;20400;-67
2022/03/29 08:25:39;;;;;;;151.48;32.88;;;;;;;;;;5039566;28;20021;-69
2022/03/29 08:28:05;;;;;;;149.85;31.92;;;;;;;;;;5037230;28;20155;-68
2022/03/29 08:30:30;;;;;;;141.38;31.65;;;;;;;;;;5039999;28;20040;-68
2022/03/29 08:32:57;;;;;;;154.32;35.33;;;;;;;;;;5041795;28;20037;-68
2022/03/29 08:35:23;;;;;;;153.50;34.28;;;;;;;;;;5040130;28;20025;-68
2022/03/29 08:37:48;;;;;;;152.80;34.75;;;;;;;;;;5041138;28;20382;-69
2022/03/29 08:40:15;;;;;;;147.63;32.83;;;;;;;;;;5034044;28;20028;-68
2022/03/29 08:42:42;;;;;;;144.88;33.58;;;;;;;;;;5037909;28;20262;-68
2022/03/29 08:45:08;;;;;;;136.00;32.10;;;;;;;;;;5036310;28;20187;-68
2022/03/29 08:47:33;;;;;;;162.52;36.63;;;;;;;;;;5037807;28;20755;-68
2022/03/29 08:49:58;;;;;;;164.18;36.83;;;;;;;;;;5035604;28;20039;-68
2022/03/29 08:52:24;;;;;;;148.32;35.47;;;;;;;;;;5037780;28;20092;-67
2022/03/29 08:54:49;;;;;;;164.77;36.50;;;;;;;;;;5042733;28;20029;-72
2022/03/29 08:57:15;;;;;;;152.57;35.65;;;;;;;;;;5035372;28;20475;-70
2022/03/29 08:59:41;;;;;;;153.70;35.50;;;;;;;;;;5042084;28;20052;-68
2022/03/29 09:02:11;;;;;;;157.32;33.60;;;;;;;;;;5036020;28;20543;-69
2022/03/29 09:04:36;;;;;;;157.75;34.67;;;;;;;;;;5043639;28;20040;-68
2022/03/29 09:07:02;;;;;;;134.97;31.83;;;;;;;;;;5043952;28;20021;-68
2022/03/29 09:09:34;;;;;;;160.50;36.60;;;;;;;;;;5039439;28;20720;-68
2022/03/29 09:12:08;;;;;;;160.02;36.60;;;;;;;;;;5035275;28;20032;-68
2022/03/29 09:14:48;;;;;;;169.18;40.70;;;;;;;;;;5045773;28;20021;-69
2022/03/29 09:17:23;;;;;;;155.50;35.67;;;;;;;;;;5039895;28;20025;-68
2022/03/29 09:19:51;;;;;;;169.65;38.15;;;;;;;;;;5035508;28;20029;-68
2022/03/29 09:22:34;;;;;;;154.07;34.53;;;;;;;;;;5041017;28;20032;-68
2022/03/29 09:24:59;;;;;;;167.37;38.23;;;;;;;;;;5036987;28;20025;-68
2022/03/29 09:27:25;;;;;;;156.90;35.13;;;;;;;;;;5041447;28;20573;-68
2022/03/29 09:30:04;;;;;;;152.48;34.53;;;;;;;;;;5039300;28;20262;-68
2022/03/29 09:32:30;;;;;;;162.07;36.70;;;;;;;;;;5044129;28;20285;-67
2022/03/29 09:35:02;;;;;;;160.23;39.53;;;;;;;;;;5042929;28;20067;-68
2022/03/29 09:37:34;;;;;;;141.80;34.88;;;;;;;;;;5043095;28;20033;-68
2022/03/29 09:40:00;;;;;;;161.73;36.45;;;;;;;;;;5038133;28;20482;-68
2022/03/29 09:42:27;;;;;;;155.07;36.22;;;;;;;;;;5035947;28;20033;-68
2022/03/29 09:44:57;;;;;;;172.68;40.25;;;;;;;;;;5036863;28;20036;-68
2022/03/29 09:47:22;;;;;;;166.07;38.13;;;;;;;;;;5051913;28;20025;-68
2022/03/29 09:49:52;;;;;;;167.93;39.88;;;;;;;;;;5046957;28;20020;-68
2022/03/29 09:52:18;;;;;;;144.73;40.97;;;;;;;;;;5045407;28;20052;-68
2022/03/29 09:55:02;;;;;;;146.70;39.58;;;;;;;;;;5042445;28;20051;-68
2022/03/29 09:57:37;;;;;;;160.00;38.40;;;;;;;;;;5037263;28;20025;-68
2022/03/29 10:00:03;;;;;;;163.85;40.95;;;;;;;;;;5045005;28;20033;-68
2022/03/29 10:02:36;;;;;;;172.45;46.40;;;;;;;;;;5048817;28;20029;-68
2022/03/29 10:05:02;;;;;;;152.23;38.80;;;;;;;;;;5047780;28;20041;-69
2022/03/29 10:07:29;;;;;;;146.80;39.72;;;;;;;;;;5045479;28;20029;-68
2022/03/29 10:09:54;;;;;;;148.35;38.63;;;;;;;;;;5048544;28;20487;-69
2022/03/29 10:12:22;;;;;;;149.30;39.97;;;;;;;;;;5052208;28;20435;-68
2022/03/29 10:14:49;;;;;;;149.70;38.25;;;;;;;;;;5047988;28;20097;-68
2022/03/29 10:17:15;;;;;;;148.15;38.00;;;;;;;;;;5041100;28;20071;-69
2022/03/29 10:19:42;;;;;;;167.60;39.78;;;;;;;;;;5047687;28;20716;-68
2022/03/29 10:22:07;;;;;;;161.32;39.90;;;;;;;;;;5045501;28;20036;-69
2022/03/29 10:24:33;;;;;;;169.40;39.50;;;;;;;;;;5045923;28;20135;-68
2022/03/29 10:27:00;;;;;;;148.48;36.35;;;;;;;;;;5045096;28;20282;-69
2022/03/29 10:29:25;;;;;;;163.10;41.75;;;;;;;;;;5047229;28;20048;-69
2022/03/29 10:31:54;;;;;;;149.18;37.70;;;;;;;;;;5046445;28;20147;-67
2022/03/29 10:34:25;;;;;;;160.57;40.67;;;;;;;;;;5049213;28;20095;-68
2022/03/29 10:37:04;;;;;;;138.85;34.50;;;;;;;;;;5041135;28;20027;-68
2022/03/29 10:39:45;;;;;;;148.88;38.53;;;;;;;;;;5046322;28;20099;-68
2022/03/29 10:42:28;;;;;;;142.32;37.30;;;;;;;;;;5047250;28;20486;-69
2022/03/29 10:45:01;;;;;;;147.45;36.42;;;;;;;;;;5048605;28;20116;-69
2022/03/29 10:47:28;;;;;;;138.07;36.28;;;;;;;;;;5046003;28;20032;-69
2022/03/29 10:49:53;;;;;;;143.95;36.38;;;;;;;;;;5046369;28;20029;-69
2022/03/29 10:52:21;;;;;;;147.13;37.58;;;;;;;;;;5047060;28;20295;-68
2022/03/29 10:54:47;;;;;;;140.68;37.22;;;;;;;;;;5045615;28;20052;-69
2022/03/29 10:57:24;;;;;;;132.88;36.15;;;;;;;;;;5043564;28;20060;-68
2022/03/29 10:59:50;;;;;;;140.77;38.58;;;;;;;;;;5046408;28;20059;-68
2022/03/29 11:02:18;;;;;;;141.95;39.45;;;;;;;;;;5042629;28;20027;-68
2022/03/29 11:05:16;;;;;;;130.65;36.85;;;;;;;;;;5045123;28;20082;-68
2022/03/29 11:07:47;;;;;;;137.48;33.88;;;;;;;;;;5020463;28;20068;-68
2022/03/29 11:10:16;;;;;;;123.10;34.10;;;;;;;;;;5045698;28;20057;-68
2022/03/29 11:12:49;;;;;;;131.20;37.55;;;;;;;;;;5045851;28;20029;-68
2022/03/29 11:15:36;;;;;;;132.02;35.38;;;;;;;;;;5044802;28;20053;-69
2022/03/29 11:18:04;;;;;;;132.85;35.17;;;;;;;;;;5040802;28;20070;-68
2022/03/29 11:20:38;;;;;;;136.52;34.85;;;;;;;;;;5045611;28;20017;-68
2022/03/29 11:23:05;;;;;;;142.73;39.70;;;;;;;;;;5059385;22;20033;-69
2022/03/29 11:25:37;;;;;;;125.03;35.03;;;;;;;;;;5042996;28;20497;-69
2022/03/29 11:28:07;;;;;;;126.90;32.65;;;;;;;;;;5045091;28;20021;-70
2022/03/29 11:30:34;;;;;;;118.45;34.63;;;;;;;;;;5044671;28;20017;-69
2022/03/29 11:32:59;;;;;;;124.85;35.75;;;;;;;;;;5041412;28;20060;-70
2022/03/29 11:35:26;;;;;;;123.47;36.85;;;;;;;;;;5045829;28;20100;-70
2022/03/29 11:37:51;;;;;;;119.15;35.13;;;;;;;;;;5044302;28;20056;-68
2022/03/29 11:40:17;;;;;;;139.20;39.28;;;;;;;;;;5045571;28;20066;-69
2022/03/29 11:42:55;;;;;;;126.40;35.17;;;;;;;;;;5047486;28;20048;-69
2022/03/29 11:45:25;;;;;;;140.48;40.45;;;;;;;;;;5044132;28;20051;-69
2022/03/29 11:48:04;;;;;;;143.55;36.63;;;;;;;;;;5045396;28;20446;-69
2022/03/29 11:50:29;;;;;;;137.15;39.05;;;;;;;;;;5035498;28;20055;-69
2022/03/29 11:52:55;;;;;;;141.47;39.20;;;;;;;;;;5044285;28;20020;-69
2022/03/29 11:55:20;;;;;;;146.70;38.47;;;;;;;;;;5041740;28;20632;-69
2022/03/29 11:57:45;;;;;;;141.45;40.45;;;;;;;;;;5045697;28;20648;-69
2022/03/29 12:00:24;;;;;;;152.65;43.08;;;;;;;;;;5045498;28;20463;-69
2022/03/29 12:02:49;;;;;;;138.25;39.25;;;;;;;;;;5020889;28;20594;-69
2022/03/29 12:05:24;;;;;;;153.07;41.95;;;;;;;;;;5023373;28;20057;-69
2022/03/29 12:07:54;;;;;;;133.80;39.90;;;;;;;;;;5025289;28;20116;-69
2022/03/29 12:10:27;;;;;;;155.82;42.97;;;;;;;;;;5025073;28;20055;-70
2022/03/29 12:12:52;;;;;;;156.43;44.05;;;;;;;;;;5021014;28;20051;-69
2022/03/29 12:15:20;;;;;;;159.37;44.13;;;;;;;;;;5024967;28;20013;-69
2022/03/29 12:20:45;;;;;;;146.02;41.45;;;;;;;;;;5018710;28;20031;-69
2022/03/29 12:23:17;;;;;;;148.20;42.15;;;;;;;;;;5023795;28;20026;-69
2022/03/29 12:25:43;;;;;;;148.75;45.33;;;;;;;;;;5022707;28;20159;-69
2022/03/29 12:28:08;;;;;;;160.40;43.97;;;;;;;;;;5019746;28;20022;-69
2022/03/29 12:30:34;;;;;;;165.23;45.13;;;;;;;;;;5025183;28;20092;-69
2022/03/29 12:32:59;;;;;;;172.00;46.63;;;;;;;;;;5038935;28;20251;-69
2022/03/29 12:35:27;;;;;;;179.23;49.20;;;;;;;;;;5021143;28;20040;-69
2022/03/29 12:38:05;;;;;;;150.45;41.95;;;;;;;;;;5023658;28;20030;-69
2022/03/29 12:40:31;;;;;;;164.43;48.47;;;;;;;;;;5016899;28;20017;-69
2022/03/29 12:43:03;;;;;;;168.82;47.70;;;;;;;;;;5023569;28;20023;-69
2022/03/29 12:45:28;;;;;;;163.77;45.30;;;;;;;;;;5022594;28;20029;-69
2022/03/29 12:47:53;;;;;;;175.80;47.25;;;;;;;;;;5020562;28;20032;-69
2022/03/29 12:50:19;;;;;;;170.18;46.13;;;;;;;;;;5025262;28;20025;-69
2022/03/29 12:52:45;;;;;;;164.32;45.10;;;;;;;;;;5022869;28;20048;-69
2022/03/29 12:55:16;;;;;;;176.25;48.10;;;;;;;;;;5023601;28;20032;-69
2022/03/29 12:57:42;;;;;;;170.32;48.65;;;;;;;;;;5024589;28;20021;-69
2022/03/29 13:00:09;;;;;;;153.52;41.30;;;;;;;;;;5024532;28;20387;-70
2022/03/29 13:02:36;;;;;;;171.35;45.50;;;;;;;;;;5022028;28;20046;-69
2022/03/29 13:05:03;;;;;;;174.13;45.08;;;;;;;;;;5022582;28;20105;-69
2022/03/29 13:07:32;;;;;;;165.70;41.22;;;;;;;;;;5022976;28;20207;-69
2022/03/29 13:10:00;;;;;;;163.60;42.80;;;;;;;;;;5023505;28;20021;-69
2022/03/29 13:12:25;;;;;;;171.15;44.42;;;;;;;;;;5022621;28;20032;-69
2022/03/29 13:14:50;;;;;;;157.90;45.17;;;;;;;;;;5023471;28;20717;-69
2022/03/29 13:17:15;;;;;;;155.03;41.97;;;;;;;;;;5023864;28;20037;-69
2022/03/29 13:19:53;;;;;;;149.93;41.80;;;;;;;;;;5019036;28;20278;-69
2022/03/29 13:22:19;;;;;;;149.25;42.30;;;;;;;;;;5023714;28;20112;-69
2022/03/29 13:24:45;;;;;;;149.55;41.67;;;;;;;;;;5019961;28;20566;-69
2022/03/29 13:27:11;;;;;;;146.98;39.25;;;;;;;;;;5024692;28;20030;-69
2022/03/29 13:29:36;;;;;;;150.20;42.80;;;;;;;;;;5023039;28;20087;-69
2022/03/29 13:32:02;;;;;;;143.53;40.90;;;;;;;;;;5023827;28;20025;-69
2022/03/29 13:34:27;;;;;;;147.02;41.65;;;;;;;;;;5023161;28;20017;-69
2022/03/29 13:36:53;;;;;;;142.95;39.35;;;;;;;;;;5022291;28;20387;-69
2022/03/29 13:39:19;;;;;;;138.20;37.92;;;;;;;;;;5025297;28;20068;-69
2022/03/29 13:41:44;;;;;;;142.80;40.15;;;;;;;;;;5023603;28;20029;-69
2022/03/29 13:44:09;;;;;;;133.23;38.87;;;;;;;;;;5025925;28;20034;-69
2022/03/29 13:46:34;;;;;;;131.65;37.28;;;;;;;;;;5027454;28;20029;-69
2022/03/29 13:49:00;;;;;;;152.20;43.87;;;;;;;;;;5028487;28;20269;-69
2022/03/29 13:51:25;;;;;;;137.15;41.70;;;;;;;;;;5027640;28;20044;-69
2022/03/29 13:53:50;;;;;;;140.52;39.60;;;;;;;;;;5026984;28;20096;-69
2022/03/29 13:56:16;;;;;;;135.00;39.15;;;;;;;;;;5028111;28;20112;-69
2022/03/29 13:58:41;;;;;;;129.27;38.20;;;;;;;;;;5027493;28;20076;-69
2022/03/29 14:01:06;;;;;;;126.05;39.08;;;;;;;;;;5025914;28;20036;-69
2022/03/29 14:03:32;;;;;;;114.53;35.35;;;;;;;;;;5019552;28;20065;-69
2022/03/29 14:05:58;;;;;;;129.77;41.05;;;;;;;;;;5024224;28;20029;-69
2022/03/29 14:08:24;;;;;;;119.45;36.92;;;;;;;;;;5026254;28;20029;-69
2022/03/29 14:10:50;;;;;;;120.28;36.55;;;;;;;;;;5027662;28;20100;-69